createdAt,value
2023-03-07T02:44:12.997Z,30.23
2023-03-07T02:46:41.215Z,34.63
2023-03-07T02:49:08.821Z,34.95
2023-03-07T02:51:36.585Z,33.55
2023-03-07T02:54:04.521Z,36.33
2023-03-07T02:56:32.250Z,34.40
2023-03-07T02:58:59.859Z,34.70
2023-03-07T03:01:27.698Z,35.53
2023-03-07T03:03:56.120Z,36.80
2023-03-07T03:06:23.532Z,35.85
2023-03-07T03:08:52.526Z,34.83
2023-03-07T03:11:20.164Z,47.97
2023-03-07T03:13:47.807Z,51.22
2023-03-07T03:16:15.578Z,49.95
2023-03-07T03:18:43.440Z,53.40
2023-03-07T03:21:12.157Z,51.47
2023-03-07T03:23:40.815Z,50.63
2023-03-07T03:26:11.665Z,50.78
2023-03-07T03:28:40.228Z,50.90
2023-03-07T03:31:11.130Z,50.55
2023-03-07T03:33:40.825Z,51.10
2023-03-07T03:36:14.388Z,49.15
2023-03-07T03:38:43.091Z,49.22
2023-03-07T03:41:13.544Z,49.08
2023-03-07T03:43:41.323Z,50.00
2023-03-07T03:46:08.909Z,49.40
2023-03-07T03:48:38.042Z,48.65
2023-03-07T03:51:11.255Z,49.15
2023-03-07T03:53:40.000Z,49.90
2023-03-07T03:56:13.817Z,50.38
2023-03-07T03:58:42.938Z,50.85
2023-03-07T04:01:12.634Z,52.43
2023-03-07T04:03:43.457Z,50.83
2023-03-07T04:06:14.473Z,50.38
2023-03-07T04:08:42.269Z,49.40
2023-03-07T04:11:09.963Z,49.00
2023-03-07T04:13:37.650Z,49.25
2023-03-07T04:16:05.671Z,49.33
2023-03-07T04:18:35.161Z,48.17
2023-03-07T04:21:03.263Z,48.25
2023-03-07T04:23:30.722Z,47.15
2023-03-07T04:26:00.169Z,47.58
2023-03-07T04:28:46.131Z,46.10
2023-03-07T04:31:20.686Z,47.00
2023-03-07T04:33:48.804Z,47.83
2023-03-07T04:36:17.468Z,49.03
2023-03-07T04:38:46.776Z,49.90
2023-03-07T04:41:17.548Z,48.90
2023-03-07T04:43:47.072Z,50.50
2023-03-07T04:46:16.987Z,49.03
2023-03-07T04:48:45.410Z,50.17
2023-03-07T04:51:13.998Z,49.75
2023-03-07T04:53:41.886Z,50.25
2023-03-07T04:56:10.669Z,51.55
2023-03-07T04:58:41.321Z,52.50
2023-03-07T05:01:09.760Z,52.33
2023-03-07T05:03:37.287Z,52.75
2023-03-07T05:06:09.067Z,53.92
2023-03-07T05:08:36.959Z,53.63
2023-03-07T05:11:05.013Z,53.92
2023-03-07T05:13:33.402Z,51.92
2023-03-07T05:16:01.390Z,51.53
2023-03-07T05:18:30.209Z,53.80
2023-03-07T05:20:59.451Z,54.30
2023-03-07T05:23:27.618Z,52.97
2023-03-07T05:25:56.281Z,54.70
2023-03-07T05:28:25.174Z,54.47
2023-03-07T05:30:53.155Z,55.20
2023-03-07T05:33:20.759Z,55.15
2023-03-07T05:35:48.636Z,57.03
2023-03-07T05:38:17.187Z,58.05
2023-03-07T05:40:45.058Z,58.05
2023-03-07T05:43:13.728Z,60.38
2023-03-07T05:45:41.368Z,64.93
2023-03-07T05:48:08.976Z,64.43
2023-03-07T05:50:38.815Z,64.60
2023-03-07T05:53:06.901Z,66.53
2023-03-07T05:55:34.928Z,64.80
2023-03-07T05:58:03.076Z,67.35
2023-03-07T06:00:30.880Z,67.15
2023-03-07T06:03:04.672Z,66.47
2023-03-07T06:05:33.288Z,67.55
2023-03-07T06:08:00.755Z,68.90
2023-03-07T06:10:28.494Z,67.43
2023-03-07T06:12:56.211Z,67.28
2023-03-07T06:15:24.854Z,70.90
2023-03-07T06:18:01.827Z,67.82
2023-03-07T06:20:30.060Z,69.28
2023-03-07T06:22:57.500Z,69.05
2023-03-07T06:25:25.153Z,67.80
2023-03-07T06:27:53.008Z,65.93
2023-03-07T06:30:22.337Z,66.72
2023-03-07T06:32:49.873Z,64.60
2023-03-07T06:35:17.553Z,63.30
2023-03-07T06:37:45.225Z,65.03
2023-03-07T06:40:12.960Z,63.10
2023-03-07T06:42:40.538Z,63.05
2023-03-07T06:45:09.730Z,61.50
2023-03-07T06:47:37.458Z,62.15
2023-03-07T06:50:07.514Z,63.28
2023-03-07T06:52:36.545Z,61.25
2023-03-07T06:55:05.431Z,61.78
2023-03-07T06:57:34.451Z,62.10
2023-03-07T07:00:06.917Z,59.78
2023-03-07T07:02:34.677Z,61.50
2023-03-07T07:05:03.182Z,60.72
2023-03-07T07:07:31.632Z,63.38
2023-03-07T07:10:01.509Z,63.67
2023-03-07T07:12:30.026Z,62.53
2023-03-07T07:14:57.975Z,63.67
2023-03-07T07:17:25.566Z,62.65
2023-03-07T07:19:53.124Z,58.72
2023-03-07T07:22:20.877Z,56.57
2023-03-07T07:24:50.765Z,54.28
2023-03-07T07:27:19.733Z,53.83
2023-03-07T07:29:47.889Z,50.97
2023-03-07T07:32:15.932Z,52.85
2023-03-07T07:34:43.620Z,52.60
2023-03-07T07:37:11.458Z,51.75
2023-03-07T07:39:41.469Z,53.08
2023-03-07T07:42:09.200Z,54.05
2023-03-07T07:44:48.535Z,54.23
2023-03-07T07:47:16.436Z,53.83
2023-03-07T07:49:43.977Z,55.22
2023-03-07T07:52:11.724Z,52.17
2023-03-07T07:54:40.199Z,51.28
2023-03-07T07:57:07.894Z,52.58
2023-03-07T07:59:35.501Z,53.85
2023-03-07T08:02:03.901Z,53.10
2023-03-07T08:04:31.556Z,53.47
2023-03-07T08:06:59.058Z,56.20
2023-03-07T08:09:26.892Z,58.13
2023-03-07T08:11:54.434Z,58.25
2023-03-07T08:14:22.032Z,58.22
2023-03-07T08:16:49.580Z,57.97
2023-03-07T08:19:17.852Z,58.53
2023-03-07T08:21:45.273Z,56.05
2023-03-07T08:24:12.965Z,57.15
2023-03-07T08:26:40.489Z,56.30
2023-03-07T08:29:08.098Z,56.80
2023-03-07T08:31:35.794Z,55.97
2023-03-07T08:34:03.460Z,57.42
2023-03-07T08:36:31.007Z,56.13
2023-03-07T08:38:58.494Z,57.60
2023-03-07T08:41:26.247Z,57.25
2023-03-07T08:43:54.065Z,57.97
2023-03-07T08:46:22.064Z,58.80
2023-03-07T08:48:49.917Z,58.55
2023-03-07T08:51:20.029Z,62.60
2023-03-07T08:53:48.476Z,59.95
2023-03-07T08:56:18.252Z,60.10
2023-03-07T08:58:46.291Z,59.25
2023-03-07T09:01:13.812Z,59.60
2023-03-07T09:03:43.643Z,62.38
2023-03-07T09:06:19.441Z,59.38
2023-03-07T09:08:48.030Z,62.27
2023-03-07T09:11:15.909Z,60.08
2023-03-07T09:13:52.044Z,62.13
2023-03-07T09:16:23.069Z,58.92
2023-03-07T09:18:51.102Z,57.15
2023-03-07T09:21:18.812Z,57.33
2023-03-07T09:23:46.402Z,58.05
2023-03-07T09:26:13.948Z,57.00
2023-03-07T09:28:41.954Z,55.55
2023-03-07T09:31:11.375Z,55.40
2023-03-07T09:33:39.920Z,53.17
2023-03-07T09:36:09.665Z,52.25
2023-03-07T09:38:38.964Z,53.63
2023-03-07T09:41:28.496Z,54.03
2023-03-07T09:44:23.137Z,52.20
2023-03-07T09:47:39.917Z,52.20
2023-03-07T09:50:46.560Z,51.40
2023-03-07T09:53:39.438Z,51.15
2023-03-07T09:56:15.805Z,49.53
2023-03-07T09:58:47.301Z,50.10
2023-03-07T10:01:20.742Z,48.78
2023-03-07T10:04:01.261Z,48.92
2023-03-07T10:06:40.760Z,48.72
2023-03-07T10:09:16.005Z,46.78
2023-03-07T10:12:11.916Z,45.67
2023-03-07T10:15:06.879Z,45.22
2023-03-07T10:17:57.268Z,45.15
2023-03-07T10:20:33.292Z,47.15
2023-03-07T10:23:22.368Z,44.50
2023-03-07T10:26:09.798Z,45.03
2023-03-07T10:28:42.423Z,44.28
2023-03-07T10:31:18.616Z,43.75
2023-03-07T10:33:49.616Z,43.67
2023-03-07T10:36:40.507Z,44.30
2023-03-07T10:39:33.339Z,43.10
2023-03-07T10:42:01.270Z,43.88
2023-03-07T10:44:33.938Z,43.78
2023-03-07T10:47:01.696Z,43.25
2023-03-07T10:49:44.364Z,42.28
2023-03-07T10:52:34.870Z,42.17
2023-03-07T10:55:30.499Z,40.83
2023-03-07T10:58:22.547Z,40.58
2023-03-07T11:01:08.563Z,44.53
2023-03-07T11:03:59.636Z,42.53
2023-03-07T11:06:34.580Z,42.58
2023-03-07T11:09:35.603Z,41.97
2023-03-07T11:12:06.135Z,38.90
2023-03-07T11:14:48.956Z,38.42
2023-03-07T11:17:38.227Z,32.58
2023-03-07T11:20:19.359Z,33.88
2023-03-07T11:22:46.947Z,37.75
2023-03-07T11:25:25.873Z,33.87
2023-03-07T11:27:58.601Z,31.05
2023-03-07T11:30:33.222Z,30.83
2023-03-07T11:33:19.099Z,31.08
2023-03-07T11:36:22.643Z,30.15
2023-03-07T11:39:15.454Z,31.77
2023-03-07T11:41:47.449Z,32.63
2023-03-07T11:44:27.416Z,32.97
2023-03-07T11:47:04.062Z,32.55
2023-03-07T11:49:46.849Z,32.78
2023-03-07T11:52:35.785Z,33.63
2023-03-07T11:55:30.651Z,26.33
2023-03-07T11:58:10.469Z,24.85
2023-03-07T12:00:59.447Z,27.03
2023-03-07T12:03:30.407Z,25.92
2023-03-07T12:06:21.242Z,27.50
2023-03-07T12:09:13.175Z,26.05
2023-03-07T12:11:57.658Z,27.20
2023-03-07T12:14:51.528Z,22.02
2023-03-07T12:17:37.844Z,21.02
2023-03-07T12:20:20.880Z,21.25
2023-03-07T12:23:00.129Z,22.27
2023-03-07T12:25:40.041Z,23.47
2023-03-07T12:28:26.843Z,23.58
2023-03-07T12:31:16.874Z,21.98
2023-03-07T12:33:54.290Z,22.02
2023-03-07T12:36:30.027Z,24.42
2023-03-07T12:39:29.967Z,18.33
